Time;durP1;ratioP1;P1;durP2;ratioP2;P2;SDS_P1;SDS_P2;PMS_P1;PMS_P2;Temp;Humidity;BMP_temperature;BMP_pressure;BME280_temperature;BME280_humidity;BME280_pressure;Samples;Min_cycle;Max_cycle;Signal;HPM_P1;HPM_P2
2021/06/12 00:01:22;;;;;;;5.63;5.13;;;;;;;;;;5047859;28;20658;-76
2021/06/12 00:04:26;;;;;;;5.70;5.20;;;;;;;;;;5055647;28;20195;-76
2021/06/12 00:07:30;;;;;;;5.80;5.20;;;;;;;;;;5055703;28;20223;-76
2021/06/12 00:10:36;;;;;;;5.83;5.33;;;;;;;;;;5055681;28;20204;-75
2021/06/12 00:13:41;;;;;;;6.00;5.40;;;;;;;;;;5056134;28;20184;-75
2021/06/12 00:16:45;;;;;;;6.33;5.77;;;;;;;;;;5027350;28;20228;-76
2021/06/12 00:19:50;;;;;;;7.27;6.27;;;;;;;;;;5055514;28;20196;-75
2021/06/12 00:22:54;;;;;;;11.03;6.10;;;;;;;;;;5052594;28;20643;-76
2021/06/12 00:25:58;;;;;;;12.30;5.40;;;;;;;;;;5043546;28;20219;-76
2021/06/12 00:29:03;;;;;;;7.37;5.53;;;;;;;;;;5053313;28;20208;-75
2021/06/12 00:32:08;;;;;;;7.77;5.90;;;;;;;;;;5042862;28;20204;-76
2021/06/12 00:35:13;;;;;;;8.17;6.00;;;;;;;;;;5054437;28;20204;-76
2021/06/12 00:38:17;;;;;;;7.23;6.40;;;;;;;;;;5055302;28;20204;-75
2021/06/12 00:41:21;;;;;;;7.17;6.30;;;;;;;;;;5055142;28;20535;-74
2021/06/12 00:44:26;;;;;;;8.27;7.47;;;;;;;;;;5031492;28;20188;-76
2021/06/12 00:47:30;;;;;;;10.53;8.20;;;;;;;;;;5019325;28;20557;-76
2021/06/12 00:50:34;;;;;;;8.30;7.40;;;;;;;;;;5034009;28;20201;-75
2021/06/12 00:53:40;;;;;;;8.00;6.87;;;;;;;;;;5035504;28;20624;-76
2021/06/12 00:56:44;;;;;;;7.57;6.77;;;;;;;;;;5052233;28;20215;-76
2021/06/12 00:59:49;;;;;;;7.23;6.53;;;;;;;;;;5015277;28;20662;-76
2021/06/12 01:02:53;;;;;;;7.00;6.40;;;;;;;;;;5042693;28;20192;-75
2021/06/12 01:05:57;;;;;;;6.93;6.33;;;;;;;;;;5054834;28;20215;-75
2021/06/12 01:09:02;;;;;;;8.30;7.23;;;;;;;;;;5042499;28;20203;-75
2021/06/12 01:12:31;;;;;;;8.07;7.33;;;;;;;;;;5023029;28;20193;-75
2021/06/12 01:15:52;;;;;;;9.13;7.17;;;;;;;;;;5044003;28;20184;-76
2021/06/12 01:18:59;;;;;;;7.90;7.10;;;;;;;;;;5039328;28;20185;-77
2021/06/12 01:22:11;;;;;;;7.40;6.70;;;;;;;;;;5039228;28;20185;-75
2021/06/12 01:25:49;;;;;;;7.40;6.53;;;;;;;;;;5022999;28;20181;-75
2021/06/12 01:29:22;;;;;;;7.73;6.50;;;;;;;;;;5031780;28;20560;-75
2021/06/12 01:32:27;;;;;;;8.30;6.73;;;;;;;;;;5023521;28;20540;-75
2021/06/12 01:35:35;;;;;;;7.83;6.50;;;;;;;;;;5037344;28;20188;-76
2021/06/12 01:38:45;;;;;;;7.13;6.43;;;;;;;;;;5035677;28;20201;-76
2021/06/12 01:41:52;;;;;;;6.80;6.13;;;;;;;;;;5048480;28;20234;-76
2021/06/12 01:44:56;;;;;;;7.57;6.80;;;;;;;;;;5052762;28;20191;-76
2021/06/12 01:48:03;;;;;;;7.37;6.40;;;;;;;;;;5023697;28;20213;-76
2021/06/12 01:51:08;;;;;;;6.90;6.30;;;;;;;;;;5041311;28;20200;-75
2021/06/12 01:54:15;;;;;;;8.30;6.37;;;;;;;;;;5024966;28;20189;-75
2021/06/12 01:57:20;;;;;;;6.97;6.33;;;;;;;;;;5034784;28;20224;-76
2021/06/12 02:00:25;;;;;;;6.67;6.07;;;;;;;;;;5041094;28;20188;-76
2021/06/12 02:03:31;;;;;;;7.43;6.53;;;;;;;;;;5049673;28;20188;-75
2021/06/12 02:06:36;;;;;;;7.07;5.83;;;;;;;;;;5053611;28;20215;-75
2021/06/12 02:09:42;;;;;;;6.50;5.77;;;;;;;;;;5053311;28;20204;-75
2021/06/12 02:12:46;;;;;;;6.23;5.63;;;;;;;;;;5053143;28;20188;-75
2021/06/12 02:15:54;;;;;;;7.13;6.43;;;;;;;;;;5053107;28;20196;-76
2021/06/12 02:18:59;;;;;;;6.43;5.83;;;;;;;;;;5027265;28;20196;-75
2021/06/12 02:22:05;;;;;;;5.90;5.40;;;;;;;;;;5053144;28;20192;-76
2021/06/12 02:25:11;;;;;;;7.00;5.93;;;;;;;;;;5040803;28;20196;-75
2021/06/12 02:28:17;;;;;;;6.27;5.60;;;;;;;;;;5053200;28;20678;-75
2021/06/12 02:31:35;;;;;;;6.10;5.50;;;;;;;;;;5052890;28;20204;-76
2021/06/12 02:34:40;;;;;;;9.00;6.00;;;;;;;;;;5052960;28;20192;-76
2021/06/12 02:37:47;;;;;;;7.37;6.57;;;;;;;;;;5052970;28;20575;-75
2021/06/12 02:40:51;;;;;;;7.97;6.40;;;;;;;;;;5052969;28;20200;-76
2021/06/12 02:43:55;;;;;;;9.23;5.87;;;;;;;;;;5052642;28;20187;-75
2021/06/12 02:47:04;;;;;;;9.33;6.23;;;;;;;;;;5049975;28;20223;-75
2021/06/12 02:50:09;;;;;;;8.97;6.87;;;;;;;;;;5040822;28;20200;-76
2021/06/12 02:53:16;;;;;;;6.70;6.10;;;;;;;;;;5042063;28;20192;-75
2021/06/12 02:56:21;;;;;;;6.90;6.20;;;;;;;;;;5052889;28;20224;-76
2021/06/12 02:59:29;;;;;;;7.13;6.17;;;;;;;;;;5051627;28;20195;-75
2021/06/12 03:02:40;;;;;;;6.80;6.20;;;;;;;;;;5048119;28;20627;-75
2021/06/12 03:05:54;;;;;;;7.77;5.90;;;;;;;;;;5052659;28;20196;-76
2021/06/12 03:09:01;;;;;;;8.00;6.33;;;;;;;;;;5053373;28;20212;-75
2021/06/12 03:12:07;;;;;;;7.33;6.53;;;;;;;;;;5028918;28;20203;-76
2021/06/12 03:15:12;;;;;;;10.67;7.17;;;;;;;;;;5055094;28;20551;-76
2021/06/12 03:18:16;;;;;;;8.13;6.47;;;;;;;;;;5056929;28;20626;-75
2021/06/12 03:21:24;;;;;;;7.40;6.63;;;;;;;;;;5044485;28;20184;-75
2021/06/12 03:24:29;;;;;;;7.57;6.77;;;;;;;;;;5056296;28;20531;-76
2021/06/12 03:27:35;;;;;;;9.33;7.03;;;;;;;;;;5056257;28;20220;-75
2021/06/12 03:30:39;;;;;;;8.43;7.63;;;;;;;;;;5044584;28;20180;-75
2021/06/12 03:33:44;;;;;;;7.90;7.20;;;;;;;;;;5043642;28;20204;-75
2021/06/12 03:36:50;;;;;;;8.00;7.20;;;;;;;;;;5047558;28;20224;-77
2021/06/12 03:39:55;;;;;;;7.77;6.97;;;;;;;;;;5044889;28;20639;-75
2021/06/12 03:43:01;;;;;;;8.50;7.60;;;;;;;;;;5043939;28;20196;-75
2021/06/12 03:46:06;;;;;;;8.17;7.37;;;;;;;;;;5044107;28;20690;-75
2021/06/12 03:49:10;;;;;;;8.93;7.30;;;;;;;;;;5044164;28;20211;-75
2021/06/12 03:52:15;;;;;;;8.57;7.70;;;;;;;;;;5043630;28;20192;-75
2021/06/12 03:55:20;;;;;;;7.80;7.10;;;;;;;;;;5036862;28;20181;-75
2021/06/12 03:58:25;;;;;;;9.27;7.13;;;;;;;;;;5024320;28;20201;-75
2021/06/12 04:01:30;;;;;;;7.87;7.17;;;;;;;;;;5050157;28;20195;-75
2021/06/12 04:04:34;;;;;;;7.57;6.73;;;;;;;;;;5041536;28;20184;-76
2021/06/12 04:07:39;;;;;;;7.87;7.07;;;;;;;;;;5043205;28;20216;-75
2021/06/12 04:10:43;;;;;;;8.60;6.70;;;;;;;;;;5055444;28;20216;-76
2021/06/12 04:13:47;;;;;;;7.53;6.80;;;;;;;;;;5043395;28;20651;-75
2021/06/12 04:16:51;;;;;;;8.17;7.37;;;;;;;;;;5035892;28;20699;-75
2021/06/12 04:19:55;;;;;;;7.60;6.60;;;;;;;;;;5038294;28;20197;-75
2021/06/12 04:23:00;;;;;;;8.20;7.40;;;;;;;;;;5054664;28;20635;-76
2021/06/12 04:26:04;;;;;;;7.93;7.13;;;;;;;;;;5054848;28;20216;-76
2021/06/12 04:29:08;;;;;;;7.67;6.97;;;;;;;;;;5055603;28;20682;-75
2021/06/12 04:32:12;;;;;;;9.07;7.00;;;;;;;;;;5042600;28;20655;-76
2021/06/12 04:35:17;;;;;;;7.73;7.03;;;;;;;;;;5052932;28;20184;-76
2021/06/12 04:38:20;;;;;;;7.30;6.70;;;;;;;;;;5054950;28;20200;-76
2021/06/12 04:41:24;;;;;;;7.73;7.03;;;;;;;;;;5045996;28;20184;-76
2021/06/12 04:44:28;;;;;;;8.17;7.37;;;;;;;;;;5043387;28;20176;-75
2021/06/12 04:47:34;;;;;;;9.17;7.67;;;;;;;;;;5042465;28;20563;-76
2021/06/12 04:50:39;;;;;;;8.60;7.70;;;;;;;;;;5049174;28;20204;-76
2021/06/12 04:53:43;;;;;;;9.40;7.60;;;;;;;;;;5054784;28;20192;-76
2021/06/12 04:56:47;;;;;;;10.00;7.00;;;;;;;;;;5054678;28;20216;-76
2021/06/12 04:59:52;;;;;;;8.27;7.30;;;;;;;;;;5031496;28;20563;-75
2021/06/12 05:02:56;;;;;;;8.57;7.40;;;;;;;;;;5045477;28;20203;-76
2021/06/12 05:06:00;;;;;;;7.90;7.20;;;;;;;;;;5054829;28;20216;-76
2021/06/12 05:09:04;;;;;;;7.77;6.97;;;;;;;;;;5053452;28;20208;-75
2021/06/12 05:12:12;;;;;;;7.73;6.67;;;;;;;;;;5053373;28;20658;-76
2021/06/12 05:15:17;;;;;;;8.57;7.50;;;;;;;;;;5042330;28;20204;-76
2021/06/12 05:18:28;;;;;;;7.73;7.00;;;;;;;;;;5027434;28;20196;-75
2021/06/12 05:21:35;;;;;;;9.20;7.53;;;;;;;;;;5041242;28;20200;-75
2021/06/12 05:24:40;;;;;;;7.90;7.13;;;;;;;;;;5042362;28;20188;-75
2021/06/12 05:27:44;;;;;;;8.90;7.20;;;;;;;;;;5042265;28;20212;-76
2021/06/12 05:30:49;;;;;;;6.67;6.03;;;;;;;;;;5054276;28;20200;-76
2021/06/12 05:33:53;;;;;;;9.87;6.93;;;;;;;;;;5054389;28;20192;-76
2021/06/12 05:37:00;;;;;;;8.60;7.23;;;;;;;;;;5053098;28;20227;-76
2021/06/12 05:40:05;;;;;;;7.60;6.80;;;;;;;;;;5034609;28;20619;-75
2021/06/12 05:43:09;;;;;;;9.40;7.43;;;;;;;;;;5034243;28;20201;-76
2021/06/12 05:46:14;;;;;;;7.90;7.13;;;;;;;;;;5034782;28;20220;-76
2021/06/12 05:49:18;;;;;;;7.83;6.67;;;;;;;;;;5053832;28;20208;-76
2021/06/12 05:52:22;;;;;;;8.70;6.83;;;;;;;;;;5053646;28;20200;-76
2021/06/12 05:55:26;;;;;;;8.67;6.90;;;;;;;;;;5053931;28;20267;-75
2021/06/12 05:58:32;;;;;;;7.90;7.10;;;;;;;;;;5053898;28;20204;-75
2021/06/12 06:01:36;;;;;;;7.63;6.83;;;;;;;;;;5034188;28;20173;-76
2021/06/12 06:04:41;;;;;;;9.03;7.20;;;;;;;;;;5034290;28;20525;-76
2021/06/12 06:07:45;;;;;;;11.23;6.90;;;;;;;;;;5037764;28;20681;-77
2021/06/12 06:10:49;;;;;;;8.77;7.97;;;;;;;;;;5053805;28;20200;-76
2021/06/12 06:13:54;;;;;;;8.23;7.50;;;;;;;;;;5041922;28;20176;-76
2021/06/12 06:16:58;;;;;;;7.57;6.73;;;;;;;;;;5053437;28;20698;-76
2021/06/12 06:20:03;;;;;;;7.77;6.97;;;;;;;;;;5037090;28;20204;-76
2021/06/12 06:23:08;;;;;;;8.23;7.17;;;;;;;;;;5028762;28;20666;-76
2021/06/12 06:26:12;;;;;;;6.77;6.17;;;;;;;;;;5033667;28;20229;-76
2021/06/12 06:29:16;;;;;;;7.30;6.60;;;;;;;;;;5036584;28;20188;-76
2021/06/12 06:32:21;;;;;;;8.83;7.10;;;;;;;;;;5050047;28;20192;-76
2021/06/12 06:35:30;;;;;;;15.40;7.30;;;;;;;;;;5041068;28;20172;-75
2021/06/12 06:38:35;;;;;;;11.53;6.83;;;;;;;;;;5044448;28;20541;-75
2021/06/12 06:41:39;;;;;;;10.73;6.50;;;;;;;;;;5033500;28;20177;-75
2021/06/12 06:44:43;;;;;;;9.73;6.30;;;;;;;;;;5033549;28;20181;-75
2021/06/12 06:47:47;;;;;;;7.60;5.97;;;;;;;;;;5041363;28;20215;-75
2021/06/12 06:50:52;;;;;;;7.70;6.87;;;;;;;;;;5052651;28;20219;-76
2021/06/12 06:53:56;;;;;;;11.43;6.47;;;;;;;;;;5053841;28;20180;-76
2021/06/12 06:57:00;;;;;;;11.93;6.53;;;;;;;;;;5041056;28;20710;-75
2021/06/12 07:00:05;;;;;;;21.43;6.93;;;;;;;;;;5040704;28;20188;-76
2021/06/12 07:03:09;;;;;;;6.63;5.73;;;;;;;;;;5033938;28;20177;-75
2021/06/12 07:06:14;;;;;;;8.27;6.10;;;;;;;;;;5047630;28;20223;-75
2021/06/12 07:09:18;;;;;;;9.70;6.17;;;;;;;;;;5052936;28;20180;-75
2021/06/12 07:12:22;;;;;;;6.50;5.90;;;;;;;;;;5043976;28;20517;-75
2021/06/12 07:15:27;;;;;;;6.83;6.13;;;;;;;;;;5033508;28;20636;-74
2021/06/12 07:18:31;;;;;;;11.30;5.87;;;;;;;;;;5025314;28;20643;-75
2021/06/12 07:21:35;;;;;;;14.87;5.43;;;;;;;;;;5035329;28;20185;-75
2021/06/12 07:24:39;;;;;;;8.17;6.07;;;;;;;;;;5051063;28;20181;-75
2021/06/12 07:27:44;;;;;;;35.90;6.83;;;;;;;;;;5052221;28;20225;-74
2021/06/12 07:30:48;;;;;;;6.77;5.53;;;;;;;;;;5052350;28;20205;-75
2021/06/12 07:33:52;;;;;;;9.80;6.13;;;;;;;;;;5051268;28;20190;-74
2021/06/12 07:36:56;;;;;;;6.23;5.20;;;;;;;;;;5040468;28;20222;-74
2021/06/12 07:40:00;;;;;;;8.83;4.63;;;;;;;;;;5040670;28;20176;-74
2021/06/12 07:43:05;;;;;;;5.73;4.70;;;;;;;;;;5051770;28;20537;-74
2021/06/12 07:46:10;;;;;;;7.73;4.53;;;;;;;;;;5052730;28;20216;-74
2021/06/12 07:49:14;;;;;;;6.78;4.80;;;;;;;;;;5040218;28;20184;-74
2021/06/12 07:52:18;;;;;;;9.50;4.72;;;;;;;;;;5040238;28;20628;-74
2021/06/12 07:55:23;;;;;;;34.60;7.32;;;;;;;;;;5026360;28;20198;-74
2021/06/12 07:58:27;;;;;;;6.03;4.50;;;;;;;;;;5032973;28;20189;-74
2021/06/12 08:01:32;;;;;;;8.93;4.60;;;;;;;;;;5052269;28;20182;-73
2021/06/12 08:04:36;;;;;;;5.20;4.43;;;;;;;;;;5055693;28;20202;-76
2021/06/12 08:07:41;;;;;;;4.88;4.38;;;;;;;;;;5036624;28;20699;-74
2021/06/12 08:10:45;;;;;;;4.75;4.18;;;;;;;;;;5001875;28;20539;-74
2021/06/12 08:13:49;;;;;;;4.13;3.60;;;;;;;;;;5036242;28;20192;-75
2021/06/12 08:16:53;;;;;;;5.85;3.90;;;;;;;;;;5040233;28;20214;-74
2021/06/12 08:19:57;;;;;;;6.47;4.43;;;;;;;;;;5055551;28;20194;-75
2021/06/12 08:23:01;;;;;;;4.85;3.90;;;;;;;;;;5047771;28;20185;-74
2021/06/12 08:26:05;;;;;;;4.25;3.85;;;;;;;;;;5054964;28;20688;-75
2021/06/12 08:29:09;;;;;;;4.45;4.05;;;;;;;;;;5023741;28;20184;-74
2021/06/12 08:32:14;;;;;;;4.32;3.92;;;;;;;;;;5035836;28;20207;-74
2021/06/12 08:35:18;;;;;;;7.93;4.28;;;;;;;;;;5055155;28;20194;-74
2021/06/12 08:38:22;;;;;;;5.70;4.53;;;;;;;;;;5054702;28;20227;-75
2021/06/12 08:41:27;;;;;;;8.18;5.20;;;;;;;;;;5035663;28;20511;-75
2021/06/12 08:44:33;;;;;;;15.43;5.45;;;;;;;;;;5035998;28;20183;-75
2021/06/12 08:47:38;;;;;;;6.78;4.35;;;;;;;;;;5046084;28;20227;-75
2021/06/12 08:50:43;;;;;;;7.15;4.18;;;;;;;;;;5054934;28;20210;-74
2021/06/12 08:53:48;;;;;;;4.68;4.15;;;;;;;;;;5055436;28;20202;-74
2021/06/12 08:56:53;;;;;;;9.35;4.70;;;;;;;;;;5042700;28;20217;-75
2021/06/12 08:59:58;;;;;;;4.97;4.22;;;;;;;;;;5054973;28;20193;-75
2021/06/12 09:03:03;;;;;;;4.55;4.15;;;;;;;;;;5042321;28;20219;-74
2021/06/12 09:06:08;;;;;;;5.32;4.15;;;;;;;;;;5041609;28;20227;-74
2021/06/12 09:09:41;;;;;;;4.60;4.20;;;;;;;;;;5054699;28;20198;-75
2021/06/12 09:12:48;;;;;;;6.88;4.72;;;;;;;;;;5054059;28;20181;-74
2021/06/12 09:15:55;;;;;;;6.00;4.20;;;;;;;;;;5054350;28;20564;-75
2021/06/12 09:19:06;;;;;;;5.93;4.13;;;;;;;;;;5042795;28;20543;-74
2021/06/12 09:22:10;;;;;;;4.50;4.03;;;;;;;;;;5038687;28;20638;-74
2021/06/12 09:25:36;;;;;;;5.75;4.22;;;;;;;;;;5042317;28;20187;-73
2021/06/12 09:29:04;;;;;;;4.10;3.80;;;;;;;;;;5027268;28;20195;-75
2021/06/12 09:32:21;;;;;;;4.13;3.72;;;;;;;;;;5038524;28;20827;-75
2021/06/12 09:35:36;;;;;;;4.22;3.80;;;;;;;;;;5033512;28;20200;-74
2021/06/12 09:38:41;;;;;;;4.38;3.97;;;;;;;;;;5051788;28;20188;-74
2021/06/12 09:41:53;;;;;;;4.65;3.95;;;;;;;;;;5039224;28;20175;-75
2021/06/12 09:45:03;;;;;;;4.03;3.65;;;;;;;;;;5048160;28;20195;-75
2021/06/12 09:48:08;;;;;;;5.97;3.83;;;;;;;;;;5026250;28;20200;-75
2021/06/12 09:51:16;;;;;;;4.13;3.78;;;;;;;;;;5036428;28;20220;-76
2021/06/12 09:54:33;;;;;;;4.40;3.85;;;;;;;;;;5049593;28;20212;-75
2021/06/12 09:57:48;;;;;;;4.93;4.43;;;;;;;;;;5031466;28;20217;-74
2021/06/12 10:00:52;;;;;;;4.32;3.75;;;;;;;;;;5045181;28;20189;-75
2021/06/12 10:04:14;;;;;;;4.10;3.70;;;;;;;;;;5050799;28;20180;-74
2021/06/12 10:07:18;;;;;;;3.88;2.95;;;;;;;;;;5038068;28;20220;-75
2021/06/12 10:10:23;;;;;;;3.65;3.35;;;;;;;;;;5050460;28;20185;-74
2021/06/12 10:13:28;;;;;;;3.47;3.17;;;;;;;;;;5050553;28;20185;-74
2021/06/12 10:16:38;;;;;;;4.50;3.25;;;;;;;;;;5050089;28;20976;-75
2021/06/12 10:19:44;;;;;;;5.15;3.35;;;;;;;;;;5050779;28;20188;-74
2021/06/12 10:22:51;;;;;;;3.70;3.40;;;;;;;;;;5050329;28;20181;-76
2021/06/12 10:25:55;;;;;;;24.02;5.03;;;;;;;;;;5049928;28;20706;-75
2021/06/12 10:29:00;;;;;;;4.47;3.50;;;;;;;;;;5050129;28;20185;-74
2021/06/12 10:32:06;;;;;;;4.38;3.97;;;;;;;;;;5036157;28;20204;-75
2021/06/12 10:35:14;;;;;;;4.05;3.75;;;;;;;;;;5049575;28;20189;-75
2021/06/12 10:38:29;;;;;;;5.20;3.92;;;;;;;;;;5049293;28;20208;-75
2021/06/12 10:41:35;;;;;;;3.85;3.50;;;;;;;;;;5036110;28;20201;-73
2021/06/12 10:44:41;;;;;;;4.38;3.65;;;;;;;;;;5029441;28;20686;-74
2021/06/12 10:47:46;;;;;;;4.47;3.75;;;;;;;;;;5050100;28;20223;-74
2021/06/12 10:50:50;;;;;;;4.10;3.63;;;;;;;;;;5049902;28;20198;-74
2021/06/12 10:54:07;;;;;;;4.80;2.53;;;;;;;;;;5049596;28;20190;-74
2021/06/12 10:57:11;;;;;;;8.25;2.80;;;;;;;;;;5037443;28;20216;-74
2021/06/12 11:00:15;;;;;;;5.57;2.70;;;;;;;;;;5042081;28;20195;-73
2021/06/12 11:03:42;;;;;;;4.60;2.33;;;;;;;;;;5049497;28;20183;-74
2021/06/12 11:10:19;;;;;;;4.20;2.55;;;;;;;;;;5035391;28;20192;-73
2021/06/12 11:13:23;;;;;;;3.17;2.78;;;;;;;;;;5049373;28;20180;-74
2021/06/12 11:16:27;;;;;;;4.95;2.80;;;;;;;;;;5048583;28;20246;-74
2021/06/12 11:20:11;;;;;;;4.32;2.40;;;;;;;;;;5048777;28;20203;-73
2021/06/12 11:23:19;;;;;;;4.82;2.60;;;;;;;;;;5029283;28;20204;-75
2021/06/12 11:26:24;;;;;;;3.67;2.85;;;;;;;;;;5034588;28;20227;-72
2021/06/12 11:29:28;;;;;;;4.03;2.92;;;;;;;;;;5048886;28;20221;-73
2021/06/12 11:32:33;;;;;;;5.25;2.45;;;;;;;;;;5049405;28;20200;-75
2021/06/12 11:35:41;;;;;;;3.72;2.90;;;;;;;;;;5051132;28;20181;-74
2021/06/12 11:38:48;;;;;;;5.22;3.25;;;;;;;;;;5033345;28;20188;-75
2021/06/12 11:41:53;;;;;;;5.15;3.03;;;;;;;;;;5045099;28;20547;-74
2021/06/12 11:45:12;;;;;;;18.50;4.25;;;;;;;;;;5052874;28;20192;-75
2021/06/12 11:48:19;;;;;;;3.70;3.40;;;;;;;;;;5052797;28;20532;-75
2021/06/12 11:51:32;;;;;;;5.43;3.40;;;;;;;;;;5051910;28;20675;-74
2021/06/12 11:54:37;;;;;;;3.75;3.33;;;;;;;;;;5040444;28;20955;-74
2021/06/12 11:57:46;;;;;;;6.00;3.40;;;;;;;;;;5052569;28;20215;-74
2021/06/12 12:00:50;;;;;;;4.32;3.58;;;;;;;;;;5052466;28;20513;-74
2021/06/12 12:03:54;;;;;;;4.63;3.55;;;;;;;;;;5051936;28;20528;-75
2021/06/12 12:06:59;;;;;;;6.15;3.65;;;;;;;;;;5051689;28;20567;-75
2021/06/12 12:10:04;;;;;;;4.88;3.50;;;;;;;;;;5032975;28;20704;-74
2021/06/12 12:13:34;;;;;;;3.95;3.33;;;;;;;;;;5052078;28;20216;-74
2021/06/12 12:16:39;;;;;;;5.43;3.30;;;;;;;;;;5052264;28;20216;-74
2021/06/12 12:19:43;;;;;;;3.97;3.13;;;;;;;;;;5050907;28;20189;-74
2021/06/12 12:22:49;;;;;;;4.43;2.90;;;;;;;;;;5051672;28;20169;-74
2021/06/12 12:26:07;;;;;;;5.88;3.00;;;;;;;;;;5058910;22;20185;-85
2021/06/12 12:29:14;;;;;;;4.70;3.03;;;;;;;;;;5029051;28;20208;-83
2021/06/12 12:32:23;;;;;;;4.93;3.10;;;;;;;;;;5064849;28;20211;-82
2021/06/12 12:35:27;;;;;;;2.92;2.70;;;;;;;;;;5024457;28;20186;-82
2021/06/12 12:38:31;;;;;;;3.03;2.75;;;;;;;;;;5033912;28;20193;-82
2021/06/12 12:41:36;;;;;;;2.95;2.42;;;;;;;;;;5035459;28;20193;-82
2021/06/12 12:44:43;;;;;;;3.97;2.58;;;;;;;;;;5036062;28;20197;-82
2021/06/12 12:47:48;;;;;;;2.60;2.40;;;;;;;;;;5034979;28;20223;-82
2021/06/12 12:50:52;;;;;;;4.57;2.80;;;;;;;;;;5015586;28;20633;-82
2021/06/12 12:54:09;;;;;;;4.45;2.70;;;;;;;;;;5039532;28;20197;-82
2021/06/12 12:57:13;;;;;;;3.50;2.47;;;;;;;;;;5039197;28;20220;-82
2021/06/12 13:00:20;;;;;;;4.68;2.53;;;;;;;;;;5044452;28;20200;-82
2021/06/12 13:03:25;;;;;;;3.97;2.70;;;;;;;;;;5028567;28;20185;-82
2021/06/12 13:06:31;;;;;;;3.08;2.40;;;;;;;;;;5031873;28;20685;-82
2021/06/12 13:09:37;;;;;;;4.55;2.63;;;;;;;;;;5041401;28;20543;-82
2021/06/12 13:12:53;;;;;;;3.83;2.30;;;;;;;;;;5032443;28;20216;-82
2021/06/12 13:16:00;;;;;;;2.72;2.20;;;;;;;;;;5010539;28;20188;-82
2021/06/12 13:19:20;;;;;;;2.20;2.00;;;;;;;;;;5055944;28;20185;-82
2021/06/12 13:22:34;;;;;;;2.33;2.13;;;;;;;;;;5056039;28;20168;-82
2021/06/12 13:25:39;;;;;;;3.45;2.03;;;;;;;;;;5032009;28;20189;-82
2021/06/12 13:28:44;;;;;;;16.40;2.63;;;;;;;;;;5022272;28;20195;-82
2021/06/12 13:31:49;;;;;;;4.13;2.20;;;;;;;;;;5042334;28;20218;-82
2021/06/12 13:34:55;;;;;;;5.40;2.20;;;;;;;;;;5054541;28;20192;-82
2021/06/12 13:38:10;;;;;;;3.30;2.10;;;;;;;;;;4987153;28;20220;-82
2021/06/12 13:41:16;;;;;;;2.45;1.80;;;;;;;;;;5035543;28;20181;-82
2021/06/12 13:44:20;;;;;;;1.50;1.40;;;;;;;;;;5028117;28;20177;-82
2021/06/12 13:47:24;;;;;;;1.83;1.73;;;;;;;;;;5053270;28;20216;-82
2021/06/12 13:50:29;;;;;;;2.85;1.77;;;;;;;;;;5042258;28;20654;-83
2021/06/12 13:53:41;;;;;;;2.97;2.35;;;;;;;;;;5030188;28;20213;-83
2021/06/12 13:56:45;;;;;;;4.80;1.60;;;;;;;;;;5013398;28;20212;-83
2021/06/12 13:59:50;;;;;;;2.30;1.50;;;;;;;;;;5043290;28;20184;-83
2021/06/12 14:02:54;;;;;;;4.82;1.90;;;;;;;;;;5047726;28;20189;-83
2021/06/12 14:05:59;;;;;;;2.65;1.92;;;;;;;;;;5032066;28;20180;-83
2021/06/12 14:09:04;;;;;;;3.55;2.13;;;;;;;;;;5050367;28;20185;-83
2021/06/12 14:12:09;;;;;;;4.53;1.90;;;;;;;;;;5007012;28;20211;-85
2021/06/12 14:15:15;;;;;;;3.67;1.80;;;;;;;;;;5026217;28;20191;-85
2021/06/12 14:18:19;;;;;;;2.83;1.98;;;;;;;;;;5045440;28;20194;-83
2021/06/12 14:21:25;;;;;;;2.80;1.80;;;;;;;;;;5033354;28;20537;-83
2021/06/12 14:24:30;;;;;;;7.32;2.03;;;;;;;;;;5025575;28;20519;-85
2021/06/12 14:27:34;;;;;;;3.25;1.70;;;;;;;;;;5013812;28;20271;-83
2021/06/12 14:30:38;;;;;;;2.83;1.98;;;;;;;;;;5014632;28;20640;-82
2021/06/12 14:33:43;;;;;;;4.13;1.83;;;;;;;;;;5024284;28;20544;-84
2021/06/12 14:36:47;;;;;;;1.70;1.60;;;;;;;;;;5033198;28;20218;-83
2021/06/12 14:39:51;;;;;;;2.00;1.80;;;;;;;;;;5019297;28;20198;-84
2021/06/12 14:42:56;;;;;;;1.77;1.65;;;;;;;;;;5014445;28;20199;-84
2021/06/12 14:46:01;;;;;;;3.35;2.05;;;;;;;;;;5013503;28;20180;-83
2021/06/12 14:49:06;;;;;;;6.80;1.98;;;;;;;;;;5014035;28;20181;-84
2021/06/12 14:52:10;;;;;;;2.90;2.00;;;;;;;;;;5013540;28;20185;-84
2021/06/12 14:55:15;;;;;;;2.10;1.88;;;;;;;;;;5013743;28;20180;-84
2021/06/12 14:58:19;;;;;;;2.58;1.92;;;;;;;;;;5014126;28;20178;-84
2021/06/12 15:01:23;;;;;;;2.65;1.70;;;;;;;;;;5002941;28;20632;-84
2021/06/12 15:04:28;;;;;;;3.42;1.90;;;;;;;;;;5031007;28;20200;-84
2021/06/12 15:07:35;;;;;;;2.15;1.50;;;;;;;;;;5011714;28;20223;-85
2021/06/12 15:10:40;;;;;;;2.40;1.50;;;;;;;;;;5034017;28;20185;-83
2021/06/12 15:13:44;;;;;;;5.88;1.48;;;;;;;;;;5038642;28;20210;-82
2021/06/12 15:16:48;;;;;;;1.73;1.20;;;;;;;;;;5044636;28;20563;-83
2021/06/12 15:19:53;;;;;;;1.50;1.20;;;;;;;;;;5037727;28;20654;-83
2021/06/12 15:22:58;;;;;;;2.25;1.08;;;;;;;;;;5025311;28;20177;-84
2021/06/12 15:26:03;;;;;;;6.03;1.20;;;;;;;;;;5042905;28;20547;-84
2021/06/12 15:29:08;;;;;;;2.45;1.23;;;;;;;;;;5037341;28;20179;-84
2021/06/12 15:32:12;;;;;;;4.97;1.38;;;;;;;;;;5053645;28;20551;-83
2021/06/12 15:35:16;;;;;;;1.95;1.30;;;;;;;;;;5045314;28;20190;-83
2021/06/12 15:38:20;;;;;;;3.17;1.52;;;;;;;;;;5056469;28;20183;-83
2021/06/12 15:41:25;;;;;;;1.42;1.33;;;;;;;;;;5057258;28;20183;-83
2021/06/12 15:44:29;;;;;;;2.60;1.30;;;;;;;;;;5057355;28;20190;-83
2021/06/12 15:47:33;;;;;;;5.07;1.73;;;;;;;;;;5021893;28;20223;-83
2021/06/12 15:50:38;;;;;;;2.35;1.10;;;;;;;;;;5044897;28;20186;-84
2021/06/12 15:53:42;;;;;;;2.83;1.60;;;;;;;;;;5056557;28;20209;-84
2021/06/12 15:56:47;;;;;;;2.97;1.30;;;;;;;;;;5056980;28;20564;-83
2021/06/12 15:59:51;;;;;;;3.78;1.52;;;;;;;;;;5044698;28;20181;-83
2021/06/12 16:02:56;;;;;;;2.15;1.70;;;;;;;;;;5044722;28;20168;-83
2021/06/12 16:06:00;;;;;;;2.38;1.50;;;;;;;;;;5056767;28;20185;-83
2021/06/12 16:09:05;;;;;;;2.65;1.75;;;;;;;;;;5022064;28;20183;-83
2021/06/12 16:12:09;;;;;;;1.80;1.60;;;;;;;;;;5040666;28;20185;-84
2021/06/12 16:15:18;;;;;;;2.38;1.63;;;;;;;;;;5013036;28;20178;-84
2021/06/12 16:18:22;;;;;;;1.90;1.70;;;;;;;;;;5031269;28;20185;-84
2021/06/12 16:21:26;;;;;;;2.33;1.90;;;;;;;;;;5021184;28;20176;-84
2021/06/12 16:24:31;;;;;;;3.65;1.85;;;;;;;;;;5011127;28;20217;-85
2021/06/12 16:27:35;;;;;;;2.63;1.40;;;;;;;;;;5005870;28;20224;-86
2021/06/12 16:30:40;;;;;;;2.50;1.47;;;;;;;;;;4993679;28;20186;-86
2021/06/12 16:33:44;;;;;;;3.37;1.73;;;;;;;;;;5046192;28;20565;-85
2021/06/12 16:36:48;;;;;;;3.30;1.50;;;;;;;;;;5042597;28;20212;-85
2021/06/12 16:39:53;;;;;;;1.40;1.30;;;;;;;;;;5021274;28;20196;-85
2021/06/12 16:42:57;;;;;;;3.23;1.30;;;;;;;;;;5032758;28;20188;-85
2021/06/12 16:46:02;;;;;;;4.40;1.43;;;;;;;;;;5046850;28;20197;-84
2021/06/12 16:49:06;;;;;;;3.90;1.43;;;;;;;;;;5027024;28;20643;-84
2021/06/12 16:52:11;;;;;;;2.67;1.60;;;;;;;;;;5013367;28;20178;-85
2021/06/12 17:01:49;;;;;;;3.43;1.50;;;;;;;;;;5034977;28;20189;-85
2021/06/12 17:04:54;;;;;;;2.10;1.60;;;;;;;;;;5027546;28;20194;-84
2021/06/12 17:08:04;;;;;;;2.47;1.50;;;;;;;;;;5054657;28;20218;-84
2021/06/12 17:11:08;;;;;;;3.90;1.70;;;;;;;;;;5042533;28;20180;-84
2021/06/12 17:14:12;;;;;;;5.17;2.03;;;;;;;;;;5045223;28;20228;-85
2021/06/12 17:17:17;;;;;;;4.03;1.90;;;;;;;;;;5018298;28;20224;-83
2021/06/12 17:20:21;;;;;;;2.93;2.07;;;;;;;;;;5024105;28;20184;-83
2021/06/12 17:23:25;;;;;;;2.07;1.70;;;;;;;;;;5039760;28;20184;-83
2021/06/12 17:26:29;;;;;;;5.80;2.00;;;;;;;;;;5005344;28;20224;-83
2021/06/12 17:29:33;;;;;;;10.93;1.70;;;;;;;;;;5055703;28;20190;-83
2021/06/12 17:32:37;;;;;;;3.13;2.00;;;;;;;;;;5030803;28;20195;-84
2021/06/12 17:35:41;;;;;;;2.67;1.60;;;;;;;;;;5038076;28;20530;-84
2021/06/12 17:38:45;;;;;;;4.90;1.73;;;;;;;;;;5008127;28;20531;-83
2021/06/12 17:41:49;;;;;;;3.20;1.60;;;;;;;;;;5022497;28;20190;-84
2021/06/12 17:44:54;;;;;;;2.10;1.70;;;;;;;;;;5047720;28;20193;-84
2021/06/12 17:47:58;;;;;;;5.00;1.73;;;;;;;;;;5039088;28;20228;-83
2021/06/12 17:51:03;;;;;;;3.33;1.77;;;;;;;;;;5043554;28;20198;-83
2021/06/12 17:54:07;;;;;;;6.30;2.20;;;;;;;;;;5029657;28;20564;-83
2021/06/12 17:57:11;;;;;;;3.57;1.73;;;;;;;;;;5020517;28;20225;-84
2021/06/12 18:00:18;;;;;;;3.47;1.70;;;;;;;;;;5032969;28;20185;-83
2021/06/12 18:03:23;;;;;;;4.40;1.83;;;;;;;;;;5024333;28;20175;-83
2021/06/12 18:06:27;;;;;;;1.83;1.60;;;;;;;;;;5027438;28;20218;-83
2021/06/12 18:09:31;;;;;;;5.00;1.67;;;;;;;;;;5056280;28;20177;-83
2021/06/12 18:12:36;;;;;;;2.40;1.60;;;;;;;;;;5033550;28;20185;-84
2021/06/12 18:15:40;;;;;;;3.57;1.60;;;;;;;;;;5042812;28;20175;-83
2021/06/12 18:18:44;;;;;;;3.27;1.47;;;;;;;;;;5055992;28;20181;-83
2021/06/12 18:21:48;;;;;;;2.13;1.43;;;;;;;;;;5042748;28;20200;-83
2021/06/12 18:24:53;;;;;;;3.00;1.50;;;;;;;;;;5024044;28;20197;-84
2021/06/12 18:27:57;;;;;;;4.77;1.60;;;;;;;;;;5047136;22;20227;-85
2021/06/12 18:31:01;;;;;;;3.23;1.50;;;;;;;;;;5040001;28;20175;-84
2021/06/12 18:34:05;;;;;;;2.07;1.30;;;;;;;;;;5037281;28;20203;-84
2021/06/12 18:37:10;;;;;;;1.30;1.20;;;;;;;;;;5046699;28;20200;-84
2021/06/12 18:40:15;;;;;;;7.37;1.73;;;;;;;;;;4999880;28;20177;-84
2021/06/12 18:43:19;;;;;;;3.27;1.53;;;;;;;;;;5022391;28;20631;-83
2021/06/12 18:46:23;;;;;;;3.43;1.40;;;;;;;;;;5022867;28;20188;-85